Time;durP1;ratioP1;P1;durP2;ratioP2;P2;SDS_P1;SDS_P2;PMS_P1;PMS_P2;Temp;Humidity;BMP_temperature;BMP_pressure;BME280_temperature;BME280_humidity;BME280_pressure;Samples;Min_cycle;Max_cycle;Signal;HPM_P1;HPM_P2
2020/12/29 00:00:11;;;;;;;3.13;1.50;;;;;;;25.93;30.14;93166.88;5040643;28;20040;-42
2020/12/29 00:02:39;;;;;;;3.63;1.60;;;;;;;25.94;30.01;93168.50;5041609;28;20120;-39
2020/12/29 00:05:05;;;;;;;4.30;1.65;;;;;;;25.94;30.09;93168.50;5046626;28;20033;-43
2020/12/29 00:07:31;;;;;;;2.92;1.42;;;;;;;25.96;30.04;93168.34;5040723;28;20107;-43
2020/12/29 00:09:57;;;;;;;6.75;1.40;;;;;;;25.97;30.02;93156.84;5041896;28;20450;-41
2020/12/29 00:12:23;;;;;;;4.15;1.60;;;;;;;25.96;29.95;93158.69;5036501;28;20622;-43
2020/12/29 00:14:48;;;;;;;2.85;1.30;;;;;;;25.96;29.98;93149.97;5044166;28;20045;-38
2020/12/29 00:17:14;;;;;;;3.88;1.52;;;;;;;25.95;29.90;93153.59;5037356;28;20184;-42
2020/12/29 00:19:39;;;;;;;4.13;1.52;;;;;;;25.96;30.07;93152.59;5037581;28;20056;-43
2020/12/29 00:22:05;;;;;;;3.22;1.70;;;;;;;25.96;29.97;93155.22;5047328;28;20049;-43
2020/12/29 00:24:31;;;;;;;4.50;1.60;;;;;;;25.96;29.84;93158.69;5046310;28;20114;-40
2020/12/29 00:26:57;;;;;;;3.03;1.50;;;;;;;25.98;30.05;93163.75;5039101;28;20423;-42
2020/12/29 00:29:22;;;;;;;3.70;1.50;;;;;;;25.97;29.97;93167.34;5036571;28;20033;-41
2020/12/29 00:31:48;;;;;;;3.83;1.40;;;;;;;25.96;29.88;93170.97;5042368;28;20583;-44
2020/12/29 00:34:14;;;;;;;2.58;1.20;;;;;;;25.95;30.02;93164.09;5046619;28;20033;-44
2020/12/29 00:36:40;;;;;;;3.58;1.50;;;;;;;25.96;30.01;93166.56;5039554;28;20045;-40
2020/12/29 00:39:06;;;;;;;4.18;1.50;;;;;;;25.96;29.87;93161.31;5037740;28;20573;-43
2020/12/29 00:41:31;;;;;;;2.63;1.42;;;;;;;25.97;29.85;93162.09;5043109;28;20060;-40
2020/12/29 00:43:57;;;;;;;4.80;1.50;;;;;;;25.97;29.82;93172.59;5053249;28;20064;-42
2020/12/29 00:46:22;;;;;;;3.30;1.23;;;;;;;25.97;29.95;93167.34;5036554;28;20385;-42
2020/12/29 00:48:48;;;;;;;6.10;1.35;;;;;;;25.97;29.97;93172.59;5042216;28;20033;-43
2020/12/29 00:51:16;;;;;;;1.75;1.20;;;;;;;25.98;29.89;93179.50;5040824;28;20152;-42
2020/12/29 00:53:41;;;;;;;3.17;1.25;;;;;;;25.97;30.02;93177.84;5044217;28;20036;-42
2020/12/29 00:56:07;;;;;;;2.28;1.13;;;;;;;25.97;29.78;93172.59;5034312;28;20535;-41
2020/12/29 00:58:33;;;;;;;3.38;1.33;;;;;;;25.97;29.86;93185.72;5034176;28;20047;-43
2020/12/29 01:00:59;;;;;;;2.95;1.17;;;;;;;25.97;29.94;93177.84;5040710;28;20625;-40
2020/12/29 01:03:24;;;;;;;3.60;1.17;;;;;;;25.97;29.77;93167.34;5033996;28;20122;-40
2020/12/29 01:05:50;;;;;;;3.53;1.50;;;;;;;25.98;29.73;93166.38;5041005;28;20052;-39
2020/12/29 01:08:16;;;;;;;3.17;1.27;;;;;;;25.99;29.91;93181.13;5036311;28;20041;-40
2020/12/29 01:10:43;;;;;;;3.08;1.20;;;;;;;25.97;29.81;93172.59;5039581;28;20053;-40
2020/12/29 01:13:09;;;;;;;4.13;1.10;;;;;;;25.97;29.71;93162.09;5039643;28;20109;-40
2020/12/29 01:15:34;;;;;;;3.13;1.23;;;;;;;25.97;29.71;93164.72;5036122;28;20033;-44
2020/12/29 01:18:00;;;;;;;2.95;1.30;;;;;;;25.96;29.61;93170.97;5040413;28;20083;-43
2020/12/29 01:20:26;;;;;;;5.50;1.20;;;;;;;25.96;29.72;93170.97;5038030;28;20072;-42
2020/12/29 01:22:52;;;;;;;3.00;1.10;;;;;;;25.96;29.70;93182.28;5044041;28;20037;-42
2020/12/29 01:25:18;;;;;;;2.95;1.05;;;;;;;25.97;29.65;93183.09;5048240;28;20040;-40
2020/12/29 01:27:44;;;;;;;2.65;1.00;;;;;;;25.97;29.62;93196.22;5031347;28;20036;-39
2020/12/29 01:30:10;;;;;;;4.38;1.20;;;;;;;25.97;29.79;93204.06;5039406;28;20071;-44
2020/12/29 01:32:38;;;;;;;1.85;0.93;;;;;;;25.98;29.80;93210.97;5045503;28;20041;-43
2020/12/29 01:35:04;;;;;;;3.88;1.23;;;;;;;26.00;29.77;93208.19;5045940;28;20591;-42
2020/12/29 01:37:30;;;;;;;1.98;1.20;;;;;;;25.96;29.67;93210.31;5045517;28;20051;-41
2020/12/29 01:39:55;;;;;;;1.63;0.82;;;;;;;25.93;29.79;93211.47;5035114;28;20045;-41
2020/12/29 01:42:22;;;;;;;3.58;1.10;;;;;;;25.92;29.90;93203.78;5039017;28;20111;-40
2020/12/29 01:44:47;;;;;;;1.88;0.95;;;;;;;25.91;29.87;93196.91;5040927;28;20053;-38
2020/12/29 01:47:12;;;;;;;2.58;0.80;;;;;;;25.88;29.88;93190.19;5037969;28;20072;-41
2020/12/29 01:49:38;;;;;;;2.15;1.13;;;;;;;25.91;29.74;93196.91;5045318;28;20037;-44
2020/12/29 01:52:04;;;;;;;3.38;1.30;;;;;;;25.91;29.70;93196.91;5030750;28;20037;-42
2020/12/29 01:54:30;;;;;;;1.85;0.82;;;;;;;25.91;29.62;93194.28;5035139;28;20069;-41
2020/12/29 01:56:55;;;;;;;2.15;1.00;;;;;;;25.93;29.56;93197.56;5031818;28;20037;-40
2020/12/29 01:59:21;;;;;;;1.73;0.90;;;;;;;25.94;29.88;93196.56;5035666;28;20062;-41
2020/12/29 02:01:46;;;;;;;2.20;1.00;;;;;;;25.91;29.74;93194.28;5043928;28;20075;-40
2020/12/29 02:04:12;;;;;;;1.23;0.80;;;;;;;25.92;29.87;93198.53;5033913;28;20042;-43
2020/12/29 02:06:38;;;;;;;3.60;1.48;;;;;;;25.92;29.74;93201.16;5043651;28;20071;-39
2020/12/29 02:09:07;;;;;;;0.93;0.65;;;;;;;25.92;29.67;93203.78;5041568;28;20112;-45
2020/12/29 02:11:32;;;;;;;2.35;0.70;;;;;;;25.93;29.68;93210.69;5039068;28;20045;-43
2020/12/29 02:13:59;;;;;;;1.58;0.68;;;;;;;25.95;29.67;93216.56;5039619;28;20060;-40
2020/12/29 02:16:24;;;;;;;2.10;1.00;;;;;;;25.95;29.74;93217.38;5038599;28;20091;-43
2020/12/29 02:18:50;;;;;;;1.42;0.75;;;;;;;25.94;29.60;93215.72;5044218;28;20060;-43
2020/12/29 02:21:16;;;;;;;3.72;1.20;;;;;;;25.96;29.64;93223.44;5035478;28;20040;-41
2020/12/29 02:23:41;;;;;;;1.40;0.70;;;;;;;25.96;29.80;93226.06;5028611;28;20040;-41
2020/12/29 02:26:07;;;;;;;1.83;0.85;;;;;;;25.95;29.77;93227.88;5042007;28;20501;-41
2020/12/29 02:28:32;;;;;;;2.40;0.75;;;;;;;25.95;29.79;93227.88;5043416;28;20064;-42
2020/12/29 02:30:58;;;;;;;1.45;0.80;;;;;;;25.90;29.95;93224.13;5043047;28;20059;-40
2020/12/29 02:33:24;;;;;;;1.02;0.73;;;;;;;25.92;29.91;93237.88;5029082;28;20044;-41
2020/12/29 02:35:49;;;;;;;1.85;0.88;;;;;;;25.95;29.72;93234.91;5041895;28;20044;-44
2020/12/29 02:38:21;;;;;;;1.67;0.77;;;;;;;25.94;29.83;93235.91;5042551;28;20198;-41
2020/12/29 02:40:47;;;;;;;1.27;0.50;;;;;;;25.97;29.72;93246.06;5047771;28;20555;-42
2020/12/29 02:43:13;;;;;;;1.52;0.70;;;;;;;25.95;29.74;93248.03;5044944;28;20051;-42
2020/12/29 02:45:38;;;;;;;1.85;0.70;;;;;;;25.93;29.74;93240.34;5042337;28;20503;-43
2020/12/29 02:48:05;;;;;;;2.05;0.90;;;;;;;25.91;29.57;93247.56;5038940;28;20051;-42
2020/12/29 02:50:31;;;;;;;1.70;0.80;;;;;;;25.94;29.55;93262.16;5035687;28;20074;-41
2020/12/29 02:52:58;;;;;;;1.20;0.60;;;;;;;25.94;29.61;93268.19;5044602;28;20045;-44
2020/12/29 02:55:23;;;;;;;1.85;0.60;;;;;;;25.92;29.64;93264.09;5040502;28;20047;-41
2020/12/29 02:57:49;;;;;;;1.90;0.65;;;;;;;25.92;29.64;93267.56;5042846;28;20037;-41
2020/12/29 03:00:15;;;;;;;1.40;0.60;;;;;;;25.90;29.77;93273.97;5030489;28;20098;-38
2020/12/29 03:02:41;;;;;;;1.15;0.55;;;;;;;25.89;29.78;93267.88;5033300;28;20063;-43
2020/12/29 03:05:06;;;;;;;1.48;0.80;;;;;;;25.91;29.76;93272.97;5036175;28;20598;-42
2020/12/29 03:07:32;;;;;;;0.50;0.40;;;;;;;25.90;29.74;93272.13;5043050;28;20124;-41
2020/12/29 03:09:58;;;;;;;0.43;0.40;;;;;;;25.91;29.77;93268.56;5041269;28;20411;-43
2020/12/29 03:12:23;;;;;;;0.82;0.55;;;;;;;25.92;29.76;93285.09;5042266;28;20040;-42
2020/12/29 03:14:49;;;;;;;1.63;0.70;;;;;;;25.93;29.62;93276.25;5040765;28;20091;-41
2020/12/29 03:17:14;;;;;;;1.33;0.70;;;;;;;25.78;29.73;93253.31;5038566;28;20100;-41
2020/12/29 03:19:39;;;;;;;0.80;0.52;;;;;;;25.91;29.80;93284.28;5039828;28;20033;-39
2020/12/29 03:22:05;;;;;;;1.67;0.60;;;;;;;25.94;29.72;93289.19;5058091;28;20051;-39
2020/12/29 03:24:31;;;;;;;1.40;0.57;;;;;;;25.94;29.67;93294.44;5045020;28;20498;-41
2020/12/29 03:26:56;;;;;;;1.20;0.65;;;;;;;25.94;29.63;93293.63;5048329;28;20041;-42
2020/12/29 03:29:22;;;;;;;0.80;0.52;;;;;;;25.94;29.55;93304.13;5039652;28;20216;-40
2020/12/29 03:31:48;;;;;;;0.73;0.52;;;;;;;25.92;29.65;93300.81;5041527;28;20087;-43
2020/12/29 03:34:36;;;;;;;0.85;0.40;;;;;;;25.90;29.63;93310.69;5044348;28;20707;-40
2020/12/29 03:37:05;;;;;;;1.13;0.40;;;;;;;25.89;29.79;93316.91;5045799;28;20052;-43
2020/12/29 03:39:31;;;;;;;1.38;0.60;;;;;;;25.85;29.78;93310.38;5045672;28;20052;-43
2020/12/29 03:41:57;;;;;;;0.77;0.47;;;;;;;25.88;29.91;93318.72;5041897;28;20127;-40
2020/12/29 03:44:23;;;;;;;1.23;0.60;;;;;;;25.87;29.72;93318.88;5058409;28;20044;-44
2020/12/29 03:46:50;;;;;;;1.40;0.50;;;;;;;25.86;29.63;93322.50;5035295;28;20091;-40
2020/12/29 03:49:15;;;;;;;0.60;0.40;;;;;;;25.86;29.79;93327.75;5040967;28;20043;-39
2020/12/29 03:51:42;;;;;;;0.70;0.52;;;;;;;25.88;29.73;93341.50;5047157;28;20041;-40
2020/12/29 03:54:08;;;;;;;0.93;0.38;;;;;;;25.84;29.67;93330.53;5049123;28;20036;-36
2020/12/29 03:56:33;;;;;;;1.05;0.60;;;;;;;25.87;29.75;93337.25;5041881;28;20047;-40
2020/12/29 03:58:59;;;;;;;0.95;0.50;;;;;;;25.87;29.58;93337.25;5037432;28;20045;-41
2020/12/29 04:01:25;;;;;;;1.00;0.52;;;;;;;25.85;29.90;93341.84;5036644;28;20147;-41
2020/12/29 04:03:51;;;;;;;1.27;0.50;;;;;;;25.69;29.73;93325.13;5038964;28;20751;-38
2020/12/29 04:06:16;;;;;;;0.38;0.30;;;;;;;25.83;29.84;93350.69;5037059;28;20033;-40
2020/12/29 04:08:41;;;;;;;0.70;0.40;;;;;;;25.83;29.82;93345.44;5044257;28;20041;-42
2020/12/29 04:11:07;;;;;;;0.75;0.55;;;;;;;25.83;29.82;93350.69;5042057;28;20458;-40
2020/12/29 04:13:33;;;;;;;1.63;0.50;;;;;;;25.84;29.78;93348.88;5057575;28;20068;-40
2020/12/29 04:15:59;;;;;;;1.08;0.40;;;;;;;25.83;29.80;93344.63;5043480;28;20128;-36
2020/12/29 04:18:24;;;;;;;1.00;0.60;;;;;;;25.85;29.88;93352.34;5049125;28;20044;-39
2020/12/29 04:20:50;;;;;;;0.40;0.40;;;;;;;25.80;29.65;93345.78;5046343;28;20072;-41
2020/12/29 04:23:15;;;;;;;1.00;0.52;;;;;;;25.81;29.81;93357.91;5042170;28;20037;-39
2020/12/29 04:25:40;;;;;;;2.60;0.30;;;;;;;25.82;29.72;93364.78;5038964;28;20052;-42
2020/12/29 04:28:06;;;;;;;0.55;0.32;;;;;;;25.82;29.73;93364.78;5028890;28;20044;-41
2020/12/29 04:30:31;;;;;;;1.15;0.65;;;;;;;25.82;29.63;93367.41;5054349;28;20580;-42
2020/12/29 04:32:57;;;;;;;1.75;0.45;;;;;;;25.85;29.80;93378.56;5041962;28;20049;-41
2020/12/29 04:35:23;;;;;;;0.47;0.30;;;;;;;25.82;29.58;93372.66;5040503;28;20068;-40
2020/12/29 04:37:49;;;;;;;0.65;0.50;;;;;;;25.80;29.72;93382.50;5041720;28;20059;-39
2020/12/29 04:40:15;;;;;;;0.65;0.32;;;;;;;25.81;29.64;93386.75;5038338;28;20045;-40
2020/12/29 04:42:42;;;;;;;1.95;0.40;;;;;;;25.81;29.84;93383.31;5045655;28;20057;-40
2020/12/29 04:45:07;;;;;;;1.00;0.40;;;;;;;25.80;29.79;93403.47;5038683;28;20055;-37
2020/12/29 04:47:33;;;;;;;0.20;0.20;;;;;;;25.78;29.82;93405.44;5033287;28;20038;-37
2020/12/29 04:49:59;;;;;;;0.47;0.30;;;;;;;25.78;29.92;93421.16;5040023;28;20037;-35
2020/12/29 04:52:24;;;;;;;0.20;0.20;;;;;;;25.77;29.85;93409.03;5043632;28;20060;-41
2020/12/29 04:54:53;;;;;;;0.50;0.47;;;;;;;25.78;29.86;93421.16;5042051;28;20033;-36
2020/12/29 04:57:19;;;;;;;0.75;0.43;;;;;;;25.76;29.73;93415.28;5037089;28;20604;-40
2020/12/29 04:59:45;;;;;;;1.05;0.40;;;;;;;25.78;29.76;93421.16;5042853;28;20053;-40
2020/12/29 05:02:10;;;;;;;0.40;0.40;;;;;;;25.79;29.63;93417.59;5039119;28;20036;-39
2020/12/29 05:04:36;;;;;;;0.55;0.40;;;;;;;25.79;29.66;93422.84;5037755;28;20041;-42
2020/12/29 05:07:02;;;;;;;1.15;0.40;;;;;;;25.80;29.70;93424.47;5032686;28;20409;-38
2020/12/29 05:09:28;;;;;;;2.60;0.60;;;;;;;25.80;29.48;93429.72;5033966;28;20041;-38
2020/12/29 05:11:54;;;;;;;2.22;0.40;;;;;;;25.82;29.54;93432.97;5043312;28;20037;-42
2020/12/29 05:14:20;;;;;;;1.25;0.50;;;;;;;25.80;29.66;93445.44;5040349;28;20492;-42
2020/12/29 05:16:46;;;;;;;3.63;0.45;;;;;;;25.80;29.87;93447.25;5033175;28;20112;-43
2020/12/29 05:19:15;;;;;;;2.85;0.60;;;;;;;25.80;29.77;93450.69;5040336;28;20040;-39
2020/12/29 05:21:41;;;;;;;0.50;0.40;;;;;;;25.79;29.85;93456.94;5039310;28;20052;-42
2020/12/29 05:24:20;;;;;;;2.15;0.30;;;;;;;25.79;29.57;93461.34;5045137;28;20041;-38
2020/12/29 05:26:48;;;;;;;3.00;0.40;;;;;;;25.79;29.82;93475.28;5047995;28;20102;-41
2020/12/29 05:29:13;;;;;;;3.65;0.40;;;;;;;25.78;29.58;93472.81;5041723;28;20033;-39
2020/12/29 05:31:40;;;;;;;1.60;0.40;;;;;;;25.79;29.68;93469.22;5037957;28;20045;-38
2020/12/29 05:34:06;;;;;;;3.35;0.47;;;;;;;25.80;29.78;93482.16;5042597;28;20129;-39
2020/12/29 05:36:37;;;;;;;0.35;0.35;;;;;;;25.79;29.67;93485.78;5037859;28;20412;-43
2020/12/29 05:39:08;;;;;;;0.70;0.32;;;;;;;25.79;29.89;93485.78;5042726;28;20029;-40
2020/12/29 05:41:41;;;;;;;0.70;0.40;;;;;;;25.74;29.79;93490.66;5033219;28;20587;-40
2020/12/29 05:44:06;;;;;;;0.45;0.20;;;;;;;25.76;29.86;93501.84;5042070;28;20109;-42
2020/12/29 05:46:33;;;;;;;0.45;0.22;;;;;;;25.77;29.90;93506.09;5036186;28;20072;-42
2020/12/29 05:48:59;;;;;;;1.27;0.30;;;;;;;25.75;29.88;93500.19;5044138;28;20078;-36
2020/12/29 05:51:25;;;;;;;3.25;0.43;;;;;;;25.77;29.68;93510.50;5042993;28;22470;-42
2020/12/29 05:53:51;;;;;;;3.40;0.38;;;;;;;25.77;29.77;93515.75;5046859;28;20071;-42
2020/12/29 05:56:19;;;;;;;1.10;0.43;;;;;;;25.77;29.83;93523.63;5041298;28;20578;-41
2020/12/29 05:58:44;;;;;;;1.15;0.50;;;;;;;25.75;29.72;93520.34;5039094;28;20679;-38
2020/12/29 06:01:10;;;;;;;2.08;0.30;;;;;;;25.75;29.76;93521.19;5053602;28;20044;-42
2020/12/29 06:03:36;;;;;;;0.68;0.22;;;;;;;25.76;29.86;93525.44;5038645;28;20040;-37
2020/12/29 06:06:06;;;;;;;0.75;0.40;;;;;;;25.76;29.63;93533.31;5054825;28;20552;-40
2020/12/29 06:08:31;;;;;;;1.75;0.40;;;;;;;25.75;29.48;93534.28;5061900;28;20017;-42
2020/12/29 06:11:04;;;;;;;0.85;0.30;;;;;;;25.78;29.72;93535.78;5035507;28;20051;-39
2020/12/29 06:13:29;;;;;;;1.30;0.35;;;;;;;25.78;29.75;93538.38;5042364;28;20120;-39
2020/12/29 06:15:58;;;;;;;0.63;0.22;;;;;;;25.76;29.79;93549.03;5021618;28;20043;-39
2020/12/29 06:18:34;;;;;;;0.28;0.20;;;;;;;25.76;29.70;93554.28;5055778;28;20045;-41
2020/12/29 06:21:06;;;;;;;0.45;0.20;;;;;;;25.75;29.71;93555.28;5038300;28;20045;-42
2020/12/29 06:23:36;;;;;;;0.43;0.30;;;;;;;25.75;29.66;93557.91;5036983;28;20048;-42
2020/12/29 06:26:02;;;;;;;1.30;0.25;;;;;;;25.75;29.86;93568.38;5031374;28;20044;-40
2020/12/29 06:28:28;;;;;;;1.42;0.40;;;;;;;25.75;29.70;93568.38;5036095;28;20043;-41
2020/12/29 06:30:57;;;;;;;1.38;0.28;;;;;;;25.76;29.57;93575.25;5042120;28;20041;-41
2020/12/29 06:33:23;;;;;;;3.47;0.20;;;;;;;25.75;29.66;93584.13;5041086;28;20044;-39
2020/12/29 06:35:50;;;;;;;0.20;0.20;;;;;;;25.77;29.63;93591.81;5035336;28;20130;-42
2020/12/29 06:38:25;;;;;;;0.30;0.20;;;;;;;25.75;29.77;93594.63;5035575;28;20075;-39
2020/12/29 06:40:50;;;;;;;0.30;0.30;;;;;;;25.77;29.76;93597.06;5027122;28;20107;-42
2020/12/29 06:43:16;;;;;;;0.50;0.20;;;;;;;25.74;29.69;93603.44;5034108;28;20041;-40
2020/12/29 06:45:41;;;;;;;0.45;0.20;;;;;;;25.75;29.52;93610.34;5037931;28;20041;-42
2020/12/29 06:48:17;;;;;;;0.55;0.20;;;;;;;25.75;29.60;93614.75;5038667;28;20652;-38
2020/12/29 06:50:42;;;;;;;0.35;0.20;;;;;;;25.74;29.71;93624.41;5044586;28;20044;-40
2020/12/29 06:53:08;;;;;;;0.73;0.20;;;;;;;25.74;29.42;93629.66;5046757;28;20113;-41
2020/12/29 06:55:37;;;;;;;0.63;0.20;;;;;;;25.74;29.63;93629.66;5038812;28;20045;-39
2020/12/29 06:58:04;;;;;;;0.98;0.20;;;;;;;25.73;29.65;93628.03;5044865;28;20124;-42
2020/12/29 07:00:29;;;;;;;0.82;0.30;;;;;;;25.72;29.82;93634.25;5035278;28;20041;-38
2020/12/29 07:02:55;;;;;;;0.30;0.20;;;;;;;25.70;29.69;93644.91;5039826;28;20040;-40
2020/12/29 07:05:27;;;;;;;0.20;0.17;;;;;;;25.68;29.71;93652.13;5037952;28;20049;-36
2020/12/29 07:08:05;;;;;;;0.68;0.40;;;;;;;25.69;29.85;93653.75;5037380;28;20032;-40
2020/12/29 07:10:34;;;;;;;0.77;0.30;;;;;;;25.70;29.67;93665.06;5035991;28;20175;-41
2020/12/29 07:13:21;;;;;;;0.30;0.20;;;;;;;25.63;29.87;93664.06;5046184;28;20029;-37
2020/12/29 07:15:47;;;;;;;1.33;0.30;;;;;;;25.67;29.79;93674.06;5038616;28;20389;-43
2020/12/29 07:18:28;;;;;;;0.45;0.40;;;;;;;25.67;29.79;93683.75;5044511;28;20071;-39
2020/12/29 07:20:57;;;;;;;0.80;0.30;;;;;;;25.68;30.07;93677.50;5041936;28;20032;-41
2020/12/29 07:23:25;;;;;;;2.50;0.30;;;;;;;25.72;29.72;93685.88;5050468;28;20051;-40
2020/12/29 07:25:51;;;;;;;0.60;0.20;;;;;;;25.61;29.91;93686.97;5040453;28;20676;-41
2020/12/29 07:28:18;;;;;;;0.38;0.20;;;;;;;25.68;29.84;93693.25;5051657;28;20407;-39
2020/12/29 07:30:43;;;;;;;0.30;0.22;;;;;;;25.69;30.07;93715.88;5039376;28;20063;-38
2020/12/29 07:33:10;;;;;;;0.35;0.20;;;;;;;25.69;29.75;93718.47;5038169;28;20037;-42
2020/12/29 07:35:37;;;;;;;0.68;0.40;;;;;;;25.68;30.04;93735.22;5039174;28;20029;-41
2020/12/29 07:38:19;;;;;;;0.73;0.28;;;;;;;25.67;29.73;93739.63;5037503;28;20033;-38
2020/12/29 07:40:45;;;;;;;0.25;0.25;;;;;;;25.66;29.98;93747.66;5032142;28;20754;-42
2020/12/29 07:43:11;;;;;;;0.22;0.22;;;;;;;25.67;30.06;93754.53;5044489;28;20038;-38
2020/12/29 07:45:36;;;;;;;3.05;0.30;;;;;;;25.68;29.91;93761.44;5043749;28;20037;-37
2020/12/29 07:48:04;;;;;;;0.60;0.30;;;;;;;25.68;29.97;93771.91;5044661;28;20411;-41
2020/12/29 07:50:30;;;;;;;0.45;0.30;;;;;;;25.69;29.83;93768.31;5044448;28;20048;-41
2020/12/29 07:53:03;;;;;;;1.98;0.60;;;;;;;25.70;29.89;93783.06;5056170;28;20051;-39
2020/12/29 07:55:28;;;;;;;15.57;0.88;;;;;;;25.74;29.60;93787.03;5046841;28;20442;-37
2020/12/29 07:57:55;;;;;;;4.25;0.47;;;;;;;25.64;29.49;93787.16;5037202;28;20075;-39
2020/12/29 08:00:21;;;;;;;3.65;0.40;;;;;;;25.73;29.34;93808.19;5032554;28;20052;-39
2020/12/29 08:02:51;;;;;;;3.50;0.57;;;;;;;25.70;29.32;93809.28;5051073;28;20389;-37
2020/12/29 08:05:28;;;;;;;4.72;0.70;;;;;;;25.67;27.63;93810.41;5038675;28;20056;-37
2020/12/29 08:08:07;;;;;;;12.75;1.17;;;;;;;25.69;27.75;93823.38;5038426;28;20029;-41
2020/12/29 08:10:37;;;;;;;7.78;0.63;;;;;;;25.64;27.94;93817.78;5037094;28;20037;-42
2020/12/29 08:13:04;;;;;;;4.15;0.63;;;;;;;25.59;28.11;93815.59;5040590;28;20048;-38
2020/12/29 08:15:40;;;;;;;1.55;0.52;;;;;;;25.65;28.20;93824.66;5035221;28;20041;-42
2020/12/29 08:18:09;;;;;;;5.50;0.50;;;;;;;25.63;28.40;93829.25;5037504;28;20045;-40
2020/12/29 08:20:43;;;;;;;5.30;0.73;;;;;;;25.61;28.07;93839.06;5036844;28;20412;-39
2020/12/29 08:23:09;;;;;;;2.28;0.50;;;;;;;25.57;28.14;93847.25;5037910;28;20025;-38
2020/12/29 08:25:34;;;;;;;1.98;0.60;;;;;;;25.56;28.26;93856.06;5038366;28;20530;-41
2020/12/29 08:28:01;;;;;;;0.85;0.30;;;;;;;25.54;27.99;93867.66;5035519;28;20045;-41
2020/12/29 08:30:26;;;;;;;0.80;0.47;;;;;;;25.50;28.22;93875.00;5033748;28;20045;-39
2020/12/29 08:32:52;;;;;;;0.70;0.60;;;;;;;25.47;28.02;93879.75;5036769;28;20818;-38
2020/12/29 08:35:18;;;;;;;1.80;0.50;;;;;;;25.43;28.26;93892.31;5036631;28;20033;-41
2020/12/29 08:38:14;;;;;;;2.08;0.40;;;;;;;25.42;28.18;93898.53;5035657;28;20036;-41
2020/12/29 08:40:41;;;;;;;2.70;0.43;;;;;;;25.42;28.19;93909.00;5038767;28;20057;-41
2020/12/29 08:43:07;;;;;;;0.98;0.45;;;;;;;25.42;28.35;93919.50;5036790;28;20041;-39
2020/12/29 08:45:33;;;;;;;4.53;0.65;;;;;;;25.40;28.29;93926.69;5036751;28;20404;-39
2020/12/29 08:47:58;;;;;;;1.15;0.40;;;;;;;25.39;29.01;93932.91;5016937;28;20041;-44
2020/12/29 08:50:28;;;;;;;1.08;0.40;;;;;;;25.41;29.58;93946.69;5037435;28;20052;-39
2020/12/29 08:53:03;;;;;;;1.00;0.40;;;;;;;25.43;30.01;93949.97;5036438;28;20036;-41
2020/12/29 08:55:30;;;;;;;0.75;0.50;;;;;;;25.46;30.11;93957.56;5036224;28;20024;-38
2020/12/29 08:57:56;;;;;;;4.18;0.43;;;;;;;25.48;30.20;93966.13;5035932;28;20041;-39
2020/12/29 09:00:24;;;;;;;3.05;0.57;;;;;;;25.53;29.93;93979.59;5049920;28;20044;-42
2020/12/29 09:02:50;;;;;;;1.02;0.47;;;;;;;25.51;30.12;93981.53;5036140;28;20040;-42
2020/12/29 09:05:29;;;;;;;2.35;0.57;;;;;;;25.57;29.99;93996.72;5031755;28;21312;-37
2020/12/29 09:07:55;;;;;;;1.95;0.50;;;;;;;25.60;30.01;94013.09;5034619;28;20538;-40
2020/12/29 09:10:20;;;;;;;0.40;0.25;;;;;;;25.61;30.17;94017.38;5036022;28;20048;-39
2020/12/29 09:12:47;;;;;;;1.02;0.60;;;;;;;25.63;30.04;94015.44;5034395;28;20041;-44
2020/12/29 09:15:13;;;;;;;2.15;0.50;;;;;;;25.65;30.25;94039.72;5034431;28;20401;-37
2020/12/29 09:17:42;;;;;;;1.95;0.60;;;;;;;25.68;29.97;94031.56;5035910;28;20043;-41
2020/12/29 09:20:14;;;;;;;14.50;1.00;;;;;;;25.68;29.53;94039.44;5038405;28;20085;-40
2020/12/29 09:23:03;;;;;;;1.30;0.45;;;;;;;25.67;29.92;94053.50;5037730;28;20060;-38
2020/12/29 09:25:33;;;;;;;5.55;1.30;;;;;;;25.60;24.59;94060.31;5041813;28;20064;-43
2020/12/29 09:28:23;;;;;;;2.47;0.90;;;;;;;25.12;21.42;94065.59;5037537;28;20044;-39
2020/12/29 09:31:00;;;;;;;2.00;0.90;;;;;;;24.55;21.91;94069.03;5037719;28;20773;-37
2020/12/29 09:33:27;;;;;;;6.78;1.80;;;;;;;24.25;23.39;94085.59;5035330;28;20091;-39
2020/12/29 09:35:52;;;;;;;2.33;0.95;;;;;;;24.11;24.22;94088.63;5035024;28;20025;-40
2020/12/29 09:38:18;;;;;;;1.33;0.68;;;;;;;24.12;25.49;94096.34;5037229;28;20055;-42
2020/12/29 09:40:45;;;;;;;2.55;0.85;;;;;;;24.17;26.28;94103.75;5036212;28;20041;-39
2020/12/29 09:43:11;;;;;;;1.60;0.60;;;;;;;24.24;26.57;94114.50;5034801;28;20039;-40
2020/12/29 09:45:37;;;;;;;1.25;0.70;;;;;;;24.31;27.06;94114.78;5034961;28;20697;-40
2020/12/29 09:48:03;;;;;;;4.47;0.68;;;;;;;24.38;27.47;94121.97;5034068;28;20579;-40
2020/12/29 09:50:29;;;;;;;2.33;0.50;;;;;;;24.46;27.33;94128.28;5034698;28;20037;-41
2020/12/29 09:52:55;;;;;;;1.77;0.70;;;;;;;24.51;27.44;94137.38;5037629;28;20052;-41
2020/12/29 09:55:20;;;;;;;7.50;0.90;;;;;;;24.57;27.69;94140.41;5036316;28;21994;-41
2020/12/29 09:57:45;;;;;;;3.58;0.70;;;;;;;24.61;27.82;94136.56;5036066;28;20045;-40
2020/12/29 10:00:11;;;;;;;2.63;0.65;;;;;;;24.68;27.71;94148.13;5038313;28;20118;-42
2020/12/29 10:02:36;;;;;;;1.65;0.55;;;;;;;24.73;28.09;94148.53;5041124;28;20143;-37
2020/12/29 10:05:02;;;;;;;7.82;0.70;;;;;;;24.79;27.89;94161.06;5038577;28;20396;-42
2020/12/29 10:07:28;;;;;;;3.50;0.70;;;;;;;24.84;28.19;94165.09;5036817;28;20187;-40
2020/12/29 10:09:54;;;;;;;0.60;0.43;;;;;;;24.89;28.10;94179.44;5039898;28;20086;-42
2020/12/29 10:12:20;;;;;;;0.98;0.40;;;;;;;24.83;24.18;94171.28;5040629;28;20045;-41
2020/12/29 10:14:46;;;;;;;2.92;0.70;;;;;;;24.75;25.99;94180.63;5038077;28;20048;-39
2020/12/29 10:17:12;;;;;;;3.20;1.35;;;;;;;24.74;26.99;94186.84;5039195;28;20458;-41
2020/12/29 10:19:37;;;;;;;6.05;1.23;;;;;;;24.77;27.22;94191.81;5035446;28;20032;-41
2020/12/29 10:22:03;;;;;;;5.32;1.92;;;;;;;24.77;27.39;94204.91;5037286;28;20800;-39
2020/12/29 10:24:29;;;;;;;4.35;1.35;;;;;;;24.78;28.12;94206.56;5032991;28;20106;-37
2020/12/29 10:26:56;;;;;;;12.80;2.13;;;;;;;24.78;28.00;94203.94;5030154;28;20048;-41
2020/12/29 10:29:22;;;;;;;16.38;3.58;;;;;;;24.84;28.16;94222.72;5032544;28;20071;-37
2020/12/29 10:31:47;;;;;;;17.77;4.78;;;;;;;24.85;28.44;94221.75;5036093;28;20060;-40
2020/12/29 10:34:13;;;;;;;9.38;4.18;;;;;;;24.87;28.79;94214.59;5039249;28;20043;-40
2020/12/29 10:36:39;;;;;;;13.82;3.20;;;;;;;24.89;28.89;94220.50;5040931;28;20037;-39
2020/12/29 10:39:06;;;;;;;9.98;3.63;;;;;;;24.92;28.89;94228.94;5044144;28;20033;-39
2020/12/29 10:41:32;;;;;;;16.00;3.70;;;;;;;24.96;29.77;94223.41;5041226;28;20037;-38
2020/12/29 10:43:57;;;;;;;12.13;3.60;;;;;;;24.97;29.49;94223.25;5034419;28;20115;-38
2020/12/29 10:46:23;;;;;;;11.43;3.08;;;;;;;25.01;28.85;94235.13;5038499;28;20048;-42
2020/12/29 10:48:49;;;;;;;7.28;2.65;;;;;;;25.04;29.49;94239.25;5038435;28;20032;-40
2020/12/29 10:51:21;;;;;;;14.00;2.65;;;;;;;25.05;29.48;94241.75;5043273;28;20036;-39
2020/12/29 10:53:47;;;;;;;10.98;2.58;;;;;;;25.06;29.44;94239.97;5039366;28;20051;-41
2020/12/29 10:56:13;;;;;;;7.07;2.10;;;;;;;25.08;29.49;94247.66;3991211;28;10000745;-40
2020/12/29 10:58:39;;;;;;;5.38;2.10;;;;;;;25.11;29.24;94255.25;5033332;28;20041;-40
2020/12/29 11:01:05;;;;;;;8.07;1.80;;;;;;;25.15;29.27;94256.63;5028489;28;20051;-39
2020/12/29 11:03:30;;;;;;;7.57;1.90;;;;;;;25.17;29.38;94258.13;5031250;28;20048;-40
2020/12/29 11:05:56;;;;;;;8.02;1.55;;;;;;;25.22;29.22;94265.59;5037189;28;20047;-42
2020/12/29 11:08:21;;;;;;;6.88;1.75;;;;;;;25.25;29.45;94267.91;5042757;28;20059;-41
2020/12/29 11:10:50;;;;;;;6.43;1.50;;;;;;;25.28;29.45;94270.25;5033500;28;20463;-39
2020/12/29 11:13:15;;;;;;;2.72;1.50;;;;;;;25.33;29.18;94271.63;5038398;28;20044;-42
2020/12/29 11:15:41;;;;;;;2.63;1.30;;;;;;;25.37;29.03;94271.22;5034126;28;20060;-39
2020/12/29 11:18:06;;;;;;;5.93;1.38;;;;;;;25.37;29.14;94273.84;5042464;28;20045;-39
2020/12/29 11:20:32;;;;;;;2.58;1.02;;;;;;;25.42;28.89;94287.38;5031168;28;20044;-38
2020/12/29 11:22:57;;;;;;;3.97;1.23;;;;;;;25.41;29.17;94279.63;5034100;28;20499;-41
2020/12/29 11:25:22;;;;;;;3.30;1.08;;;;;;;25.41;29.33;94277.00;5029814;28;20041;-44
2020/12/29 11:27:48;;;;;;;2.90;1.25;;;;;;;25.42;27.60;94276.03;5032489;28;20486;-39
2020/12/29 11:30:13;;;;;;;3.50;1.10;;;;;;;25.43;28.44;94280.31;5030914;28;20074;-40
2020/12/29 11:32:39;;;;;;;5.65;1.23;;;;;;;25.45;28.68;94286.25;5030945;28;21714;-36